createdAt,value
2019-04-07T00:02:15.593Z,44.57
2019-04-07T00:04:45.185Z,44.97
2019-04-07T00:07:14.747Z,45.27
2019-04-07T00:09:44.727Z,46.37
2019-04-07T00:12:14.205Z,47.30
2019-04-07T00:14:43.814Z,45.77
2019-04-07T00:17:13.817Z,46.33
2019-04-07T00:19:43.606Z,46.87
2019-04-07T00:22:13.394Z,49.03
2019-04-07T00:24:42.809Z,48.83
2019-04-07T00:27:12.108Z,47.27
2019-04-07T00:29:41.706Z,47.83
2019-04-07T00:32:11.144Z,48.43
2019-04-07T00:34:40.516Z,46.60
2019-04-07T00:37:10.663Z,47.53
2019-04-07T00:39:40.366Z,47.17
2019-04-07T00:42:10.456Z,47.97
2019-04-07T00:44:39.981Z,44.77
2019-04-07T00:47:09.474Z,46.70
2019-04-07T00:49:38.907Z,48.17
2019-04-07T00:52:09.414Z,47.93
2019-04-07T00:54:39.141Z,48.43
2019-04-07T00:57:08.606Z,48.13
2019-04-07T00:59:37.840Z,48.77
2019-04-07T01:02:07.083Z,48.20
2019-04-07T01:04:37.631Z,46.43
2019-04-07T01:07:06.855Z,49.33
2019-04-07T01:09:36.117Z,49.93
2019-04-07T01:12:06.086Z,47.97
2019-04-07T01:14:35.430Z,48.10
2019-04-07T01:17:05.044Z,48.37
2019-04-07T01:19:34.442Z,49.97
2019-04-07T01:22:04.205Z,50.20
2019-04-07T01:24:34.075Z,50.03
2019-04-07T01:27:03.985Z,48.83
2019-04-07T01:29:34.181Z,50.03
2019-04-07T01:32:03.812Z,48.67
2019-04-07T01:34:33.220Z,47.27
2019-04-07T01:37:03.590Z,48.20
2019-04-07T01:39:33.724Z,48.97
2019-04-07T01:42:25.557Z,48.37
2019-04-07T01:45:12.964Z,47.10
2019-04-07T01:47:52.325Z,49.13
2019-04-07T01:50:43.967Z,48.30
2019-04-07T01:53:23.059Z,49.10
2019-04-07T01:56:17.389Z,49.20
2019-04-07T01:59:18.349Z,48.50
2019-04-07T02:01:53.882Z,49.60
2019-04-07T02:04:38.921Z,48.00
2019-04-07T02:07:19.605Z,48.27
2019-04-07T02:10:10.012Z,47.37
2019-04-07T02:12:57.815Z,47.53
2019-04-07T02:15:39.665Z,51.07
2019-04-07T02:18:15.605Z,51.90
2019-04-07T02:21:04.486Z,52.83
2019-04-07T02:23:49.458Z,49.50
2019-04-07T02:26:34.379Z,51.03
2019-04-07T02:29:15.398Z,51.70
2019-04-07T02:32:03.582Z,53.60
2019-04-07T02:34:38.062Z,52.57
2019-04-07T02:37:22.683Z,54.53
2019-04-07T02:39:58.796Z,52.57
2019-04-07T02:43:00.886Z,53.80
2019-04-07T02:45:49.311Z,52.57
2019-04-07T02:48:37.837Z,52.67
2019-04-07T02:51:39.026Z,51.87
2019-04-07T02:54:30.388Z,51.07
2019-04-07T02:57:05.463Z,52.80
2019-04-07T02:59:54.385Z,53.03
2019-04-07T03:02:45.613Z,53.73
2019-04-07T03:05:34.814Z,49.00
2019-04-07T03:08:23.682Z,53.27
2019-04-07T03:11:18.211Z,52.27
2019-04-07T03:14:10.909Z,55.30
2019-04-07T03:16:56.657Z,54.43
2019-04-07T03:19:37.819Z,55.30
2019-04-07T03:22:29.258Z,53.80
2019-04-07T03:25:21.865Z,53.70
2019-04-07T03:28:10.394Z,54.97
2019-04-07T03:30:56.634Z,54.20
2019-04-07T03:34:01.865Z,50.67
2019-04-07T03:37:16.976Z,52.93
2019-04-07T03:39:26.698Z,51.40
2019-04-07T03:42:18.114Z,52.10
2019-04-07T03:44:56.640Z,55.07
2019-04-07T03:47:30.746Z,53.17
2019-04-07T03:50:05.796Z,57.30
2019-04-07T03:52:47.145Z,56.60
2019-04-07T03:55:35.204Z,55.87
2019-04-07T03:58:20.060Z,52.77
2019-04-07T04:01:11.057Z,55.53
2019-04-07T04:03:46.807Z,57.90
2019-04-07T04:06:34.210Z,57.27
2019-04-07T04:09:10.077Z,59.80
2019-04-07T04:11:45.270Z,55.43
2019-04-07T04:14:19.664Z,57.23
2019-04-07T04:16:51.148Z,58.50
2019-04-07T04:19:20.888Z,57.00
2019-04-07T04:21:50.986Z,59.03
2019-04-07T04:24:20.559Z,56.87
2019-04-07T04:26:50.255Z,57.70
2019-04-07T04:29:20.152Z,58.13
2019-04-07T04:31:50.762Z,59.33
2019-04-07T04:34:20.593Z,57.33
2019-04-07T04:36:50.361Z,57.67
2019-04-07T04:39:20.980Z,62.43
2019-04-07T04:41:50.825Z,68.23
2019-04-07T04:44:20.620Z,54.47
2019-04-07T04:46:51.008Z,60.77
2019-04-07T04:49:21.049Z,69.10
2019-04-07T04:51:51.826Z,68.17
2019-04-07T04:54:21.236Z,65.30
2019-04-07T04:56:51.583Z,62.53
2019-04-07T04:59:21.636Z,62.97
2019-04-07T05:01:51.272Z,59.43
2019-04-07T05:04:21.725Z,56.57
2019-04-07T05:06:51.584Z,58.07
2019-04-07T05:09:21.357Z,63.50
2019-04-07T05:11:51.344Z,65.63
2019-04-07T05:14:20.662Z,65.90
2019-04-07T05:16:50.393Z,59.47
2019-04-07T05:19:20.217Z,62.10
2019-04-07T05:21:50.462Z,63.23
2019-04-07T05:24:19.817Z,63.53
2019-04-07T05:26:49.254Z,64.40
2019-04-07T05:29:18.784Z,63.27
2019-04-07T05:31:48.041Z,62.33
2019-04-07T05:34:20.394Z,69.67
2019-04-07T05:36:49.403Z,59.77
2019-04-07T05:39:18.784Z,65.57
2019-04-07T05:41:48.186Z,61.07
2019-04-07T05:44:17.906Z,56.53
2019-04-07T05:46:49.489Z,56.97
2019-04-07T05:49:19.095Z,58.20
2019-04-07T05:51:49.138Z,58.80
2019-04-07T05:54:19.776Z,60.30
2019-04-07T05:56:50.407Z,52.93
2019-04-07T05:59:19.916Z,49.27
2019-04-07T06:01:51.643Z,50.03
2019-04-07T06:04:20.646Z,53.73
2019-04-07T06:06:52.712Z,50.73
2019-04-07T06:09:20.979Z,49.27
2019-04-07T06:11:50.231Z,47.13
2019-04-07T06:14:20.443Z,49.93
2019-04-07T06:16:54.053Z,48.93
2019-04-07T06:19:21.517Z,48.60
2019-04-07T06:21:51.434Z,47.77
2019-04-07T06:24:22.424Z,45.30
2019-04-07T06:26:51.824Z,45.73
2019-04-07T06:29:24.736Z,44.37
2019-04-07T06:31:52.831Z,42.63
2019-04-07T06:34:22.590Z,41.33
2019-04-07T06:36:55.253Z,39.40
2019-04-07T06:39:23.295Z,39.03
2019-04-07T06:41:52.527Z,37.60
2019-04-07T06:44:23.227Z,37.03
2019-04-07T06:47:03.434Z,38.07
2019-04-07T06:49:54.404Z,36.80
2019-04-07T06:52:38.703Z,36.37
2019-04-07T06:55:32.849Z,37.77
2019-04-07T06:58:19.675Z,37.60
2019-04-07T07:01:06.896Z,36.97
2019-04-07T07:03:54.080Z,37.30
2019-04-07T07:06:48.414Z,37.07
2019-04-07T07:09:38.708Z,37.77
2019-04-07T07:12:32.352Z,36.33
2019-04-07T07:15:15.378Z,37.27
2019-04-07T07:18:02.612Z,35.37
2019-04-07T07:20:49.675Z,35.07
2019-04-07T07:23:23.155Z,34.80
2019-04-07T07:25:53.045Z,34.13
2019-04-07T07:28:23.544Z,36.03
2019-04-07T07:30:53.744Z,35.55
2019-04-07T07:33:24.445Z,34.75
2019-04-07T07:35:53.756Z,33.08
2019-04-07T07:38:23.315Z,33.25
2019-04-07T07:40:52.682Z,32.67
2019-04-07T07:43:22.708Z,32.08
2019-04-07T07:45:52.260Z,31.97
2019-04-07T07:48:26.214Z,32.30
2019-04-07T07:50:52.614Z,32.20
2019-04-07T07:53:23.710Z,30.32
2019-04-07T07:55:53.000Z,29.67
2019-04-07T07:58:22.474Z,29.23
2019-04-07T08:00:52.513Z,28.87
2019-04-07T08:03:22.965Z,28.65
2019-04-07T08:05:53.247Z,27.98
2019-04-07T08:08:23.420Z,27.70
2019-04-07T08:10:56.288Z,26.33
2019-04-07T08:13:24.782Z,28.25
2019-04-07T08:15:56.623Z,25.95
2019-04-07T08:18:26.139Z,25.95
2019-04-07T08:20:55.493Z,23.77
2019-04-07T08:23:25.311Z,27.58
2019-04-07T08:25:56.057Z,22.22
2019-04-07T08:28:26.378Z,24.95
2019-04-07T08:30:56.177Z,24.18
2019-04-07T08:33:28.745Z,25.02
2019-04-07T08:35:56.504Z,23.30
2019-04-07T08:38:27.876Z,24.00
2019-04-07T08:40:57.664Z,23.02
2019-04-07T08:43:27.669Z,23.80
2019-04-07T08:45:57.902Z,21.62
2019-04-07T08:48:27.907Z,22.52
2019-04-07T08:50:59.359Z,21.40
2019-04-07T08:53:28.473Z,23.18
2019-04-07T08:55:58.894Z,21.90
2019-04-07T08:58:30.045Z,20.95
2019-04-07T09:00:59.390Z,19.48
2019-04-07T09:03:29.224Z,20.57
2019-04-07T09:05:58.781Z,20.17
2019-04-07T09:08:28.012Z,19.20
2019-04-07T09:11:05.856Z,20.57
2019-04-07T09:13:35.295Z,21.20
2019-04-07T09:16:22.625Z,21.17
2019-04-07T09:19:12.375Z,19.45
2019-04-07T09:21:52.526Z,20.55
2019-04-07T09:24:40.621Z,20.82
2019-04-07T09:27:24.677Z,22.50
2019-04-07T09:29:59.994Z,19.55
2019-04-07T09:32:54.642Z,20.57
2019-04-07T09:35:45.913Z,18.95
2019-04-07T09:38:29.440Z,20.55
2019-04-07T09:41:19.141Z,21.52
2019-04-07T09:44:01.087Z,19.25
2019-04-07T09:46:48.391Z,20.97
2019-04-07T09:49:35.295Z,21.00
2019-04-07T09:52:23.907Z,19.75
2019-04-07T09:55:09.733Z,18.15
2019-04-07T09:57:50.318Z,20.43
2019-04-07T10:00:36.923Z,18.35
2019-04-07T10:03:23.624Z,15.75
2019-04-07T10:06:10.943Z,15.43
2019-04-07T10:08:46.669Z,17.77
2019-04-07T10:11:41.752Z,18.40
2019-04-07T10:14:31.743Z,16.15
2019-04-07T10:17:19.509Z,16.55
2019-04-07T10:20:11.247Z,15.63
2019-04-07T10:23:11.839Z,12.23
2019-04-07T10:25:47.294Z,7.40
2019-04-07T10:28:34.229Z,5.97
2019-04-07T10:31:34.980Z,5.47
2019-04-07T10:34:25.975Z,6.35
2019-04-07T10:37:05.213Z,5.67
2019-04-07T10:39:43.566Z,5.40
2019-04-07T10:42:23.725Z,5.85
2019-04-07T10:45:03.516Z,6.25
2019-04-07T10:47:51.250Z,5.42
2019-04-07T10:50:40.562Z,6.28
2019-04-07T10:53:22.775Z,6.50
2019-04-07T10:56:00.026Z,7.33
2019-04-07T10:58:37.969Z,6.17
2019-04-07T11:01:26.681Z,6.95
2019-04-07T11:04:23.021Z,6.58
2019-04-07T11:07:09.498Z,6.28
2019-04-07T11:09:58.910Z,6.17
2019-04-07T11:12:53.791Z,6.40
2019-04-07T11:15:46.200Z,7.60
2019-04-07T11:18:38.228Z,7.40
2019-04-07T11:21:39.294Z,9.88
2019-04-07T11:24:18.744Z,7.72
2019-04-07T11:27:05.897Z,8.15
2019-04-07T11:29:43.700Z,7.20
2019-04-07T11:32:22.903Z,7.30
2019-04-07T11:35:07.097Z,6.60
2019-04-07T11:38:02.714Z,10.88
2019-04-07T11:40:59.615Z,7.42
2019-04-07T11:43:45.428Z,6.92
2019-04-07T11:46:36.650Z,9.05
2019-04-07T11:49:13.443Z,7.20
2019-04-07T11:51:54.468Z,8.25
2019-04-07T11:54:43.762Z,7.95
2019-04-07T11:57:45.310Z,7.00
2019-04-07T12:00:33.387Z,6.60
2019-04-07T12:03:27.606Z,7.53
2019-04-07T12:06:16.003Z,6.67
2019-04-07T12:09:00.183Z,6.75
2019-04-07T12:11:43.614Z,6.95
2019-04-07T12:14:52.442Z,6.72
2019-04-07T12:17:46.475Z,6.78
2019-04-07T12:20:37.615Z,6.35
2019-04-07T12:23:16.264Z,7.28
2019-04-07T12:26:04.125Z,6.87
2019-04-07T12:28:52.467Z,6.70
2019-04-07T12:31:40.925Z,7.12
2019-04-07T12:34:28.660Z,7.10
2019-04-07T12:37:18.826Z,6.78
2019-04-07T12:40:23.238Z,7.15
2019-04-07T12:43:15.575Z,7.30
2019-04-07T12:45:50.312Z,6.97
2019-04-07T12:48:31.592Z,7.40
2019-04-07T12:51:25.985Z,6.50
2019-04-07T12:54:07.325Z,6.20
2019-04-07T12:56:57.911Z,6.58
2019-04-07T12:59:48.859Z,7.45
2019-04-07T13:02:34.842Z,6.85
2019-04-07T13:05:24.142Z,7.62
2019-04-07T13:08:16.842Z,6.70
2019-04-07T13:11:08.851Z,7.17
2019-04-07T13:13:56.026Z,7.72
2019-04-07T13:16:39.054Z,6.62
2019-04-07T13:19:46.759Z,6.53
2019-04-07T13:22:37.774Z,7.50
2019-04-07T13:25:18.806Z,5.92
2019-04-07T13:28:17.324Z,6.20
2019-04-07T13:30:59.331Z,6.30
2019-04-07T13:33:59.580Z,6.47
2019-04-07T13:36:52.962Z,6.72
2019-04-07T13:39:47.062Z,6.97
2019-04-07T13:42:34.111Z,6.50
2019-04-07T13:45:21.624Z,6.85
2019-04-07T13:47:57.900Z,6.83
2019-04-07T13:50:45.907Z,6.80
2019-04-07T13:53:32.954Z,6.87
2019-04-07T13:56:27.268Z,6.50
2019-04-07T13:59:19.385Z,6.80
2019-04-07T14:02:00.677Z,6.10
2019-04-07T14:04:56.174Z,6.60
2019-04-07T14:08:04.615Z,6.78
2019-04-07T14:10:44.933Z,7.08
2019-04-07T14:13:40.736Z,6.53
2019-04-07T14:16:34.526Z,6.30
2019-04-07T14:19:11.247Z,6.58
2019-04-07T14:21:50.529Z,6.83
2019-04-07T14:24:39.426Z,6.47
2019-04-07T14:27:33.784Z,7.05
2019-04-07T14:30:14.645Z,6.95
2019-04-07T14:32:55.680Z,7.17
2019-04-07T14:35:39.758Z,6.12
2019-04-07T14:38:29.042Z,6.47
2019-04-07T14:41:08.524Z,6.30
2019-04-07T14:43:59.025Z,7.03
2019-04-07T14:46:55.657Z,6.65
2019-04-07T14:49:35.730Z,7.35
2019-04-07T14:52:15.603Z,7.05
2019-04-07T14:55:02.695Z,7.10
2019-04-07T14:57:52.435Z,7.20
2019-04-07T15:00:44.122Z,8.03
2019-04-07T15:03:14.464Z,7.12
2019-04-07T15:05:46.191Z,7.42
2019-04-07T15:08:32.538Z,8.13
2019-04-07T15:11:17.803Z,8.03
2019-04-07T15:13:47.398Z,7.37
2019-04-07T15:16:16.845Z,8.10
2019-04-07T15:18:46.761Z,7.90
2019-04-07T15:21:16.075Z,7.65
2019-04-07T15:23:47.075Z,7.47
2019-04-07T15:26:16.937Z,8.35
2019-04-07T15:28:47.189Z,7.95
2019-04-07T15:31:18.719Z,8.08
2019-04-07T15:33:47.890Z,8.90
2019-04-07T15:36:18.703Z,7.78
2019-04-07T15:38:48.657Z,8.30
2019-04-07T15:41:19.213Z,7.95
2019-04-07T15:43:48.948Z,7.20
2019-04-07T15:46:19.561Z,7.37
2019-04-07T15:48:49.843Z,7.62
2019-04-07T15:51:19.611Z,8.10
2019-04-07T15:53:51.700Z,7.90
2019-04-07T15:56:20.879Z,8.48
2019-04-07T15:58:51.708Z,8.88
2019-04-07T16:01:21.779Z,10.03
2019-04-07T16:03:53.281Z,10.10
2019-04-07T16:06:22.088Z,9.80
2019-04-07T16:08:51.760Z,9.38
2019-04-07T16:11:23.445Z,9.60
2019-04-07T16:13:52.202Z,9.38
2019-04-07T16:16:22.769Z,9.83
2019-04-07T16:18:52.850Z,9.90
2019-04-07T16:21:22.201Z,10.20
2019-04-07T16:23:53.210Z,9.65
2019-04-07T16:26:22.369Z,9.85
2019-04-07T16:28:51.989Z,9.05
2019-04-07T16:31:24.237Z,9.98
2019-04-07T16:33:52.929Z,10.30
2019-04-07T16:36:24.494Z,9.95
2019-04-07T16:38:53.249Z,9.75
2019-04-07T16:41:22.592Z,10.48
2019-04-07T16:43:52.717Z,10.98
2019-04-07T16:46:24.588Z,10.82
2019-04-07T16:48:55.521Z,10.70
2019-04-07T16:51:27.713Z,11.05
2019-04-07T16:53:56.394Z,11.25
2019-04-07T16:56:26.412Z,11.83
2019-04-07T16:58:56.623Z,10.65
2019-04-07T17:01:26.644Z,10.90
2019-04-07T17:03:57.567Z,10.15
2019-04-07T17:06:33.486Z,10.48
2019-04-07T17:08:59.199Z,10.28
2019-04-07T17:11:28.950Z,9.98
2019-04-07T17:14:01.075Z,10.32
2019-04-07T17:16:29.467Z,10.80
2019-04-07T17:18:59.791Z,11.38
2019-04-07T17:21:29.924Z,11.28
2019-04-07T17:23:59.297Z,10.58
2019-04-07T17:26:28.496Z,11.08
2019-04-07T17:28:58.587Z,11.20
2019-04-07T17:31:31.847Z,11.65
2019-04-07T17:34:00.955Z,13.45
2019-04-07T17:36:31.345Z,11.88
2019-04-07T17:39:20.566Z,12.10
2019-04-07T17:41:50.899Z,15.05
2019-04-07T17:44:42.200Z,13.10
2019-04-07T17:47:41.504Z,13.83
2019-04-07T17:50:31.600Z,14.33
2019-04-07T17:53:19.316Z,13.55
2019-04-07T17:56:06.732Z,14.20
2019-04-07T17:58:58.675Z,13.95
2019-04-07T18:01:46.342Z,13.90
2019-04-07T18:04:27.123Z,13.32
2019-04-07T18:07:14.608Z,12.85
2019-04-07T18:10:09.996Z,13.48
2019-04-07T18:12:55.618Z,13.30
2019-04-07T18:15:40.943Z,13.70
2019-04-07T18:18:23.581Z,13.32
2019-04-07T18:21:13.344Z,12.20
2019-04-07T18:24:06.439Z,12.93
2019-04-07T18:26:53.692Z,13.00
2019-04-07T18:29:38.670Z,12.70
2019-04-07T18:32:26.416Z,12.93
2019-04-07T18:35:06.563Z,13.48
2019-04-07T18:37:54.011Z,13.48
2019-04-07T18:40:37.264Z,12.90
2019-04-07T18:43:21.718Z,13.75
2019-04-07T18:46:08.448Z,13.28
2019-04-07T18:49:04.858Z,14.18
2019-04-07T18:51:52.375Z,14.55
2019-04-07T18:54:35.498Z,14.13
2019-04-07T18:57:20.608Z,13.93
2019-04-07T19:00:12.819Z,13.85
2019-04-07T19:03:00.255Z,13.25
2019-04-07T19:05:43.726Z,14.47
2019-04-07T19:08:31.742Z,14.20
2019-04-07T19:11:17.230Z,14.38
2019-04-07T19:14:29.123Z,14.50
2019-04-07T19:16:52.981Z,14.15
2019-04-07T19:19:42.038Z,14.25
2019-04-07T19:22:33.397Z,13.85
2019-04-07T19:25:21.456Z,14.10
2019-04-07T19:28:15.711Z,14.47
2019-04-07T19:31:05.245Z,13.88
2019-04-07T19:34:11.891Z,14.35
2019-04-07T19:37:00.360Z,13.70
2019-04-07T19:40:01.227Z,14.75
2019-04-07T19:42:41.705Z,15.13
2019-04-07T19:45:26.955Z,14.47
2019-04-07T19:48:07.134Z,14.43
2019-04-07T19:50:42.754Z,14.75
2019-04-07T19:53:32.284Z,15.43
2019-04-07T19:56:18.911Z,14.90
2019-04-07T19:59:17.425Z,14.87
2019-04-07T20:02:03.656Z,14.23
2019-04-07T20:04:53.741Z,14.70
2019-04-07T20:07:54.749Z,15.00
2019-04-07T20:10:58.906Z,14.60
2019-04-07T20:13:45.333Z,15.35
2019-04-07T20:16:26.229Z,14.87
2019-04-07T20:19:13.796Z,14.78
2019-04-07T20:21:54.991Z,15.50
2019-04-07T20:24:38.868Z,15.20
2019-04-07T20:27:42.803Z,14.93
2019-04-07T20:30:51.297Z,15.67
2019-04-07T20:33:43.096Z,15.80
2019-04-07T20:36:31.637Z,15.80
2019-04-07T20:39:07.303Z,14.33
2019-04-07T20:41:59.753Z,16.35
2019-04-07T20:45:03.593Z,14.70
2019-04-07T20:47:40.755Z,15.63
2019-04-07T20:50:22.244Z,15.53
2019-04-07T20:53:15.421Z,17.10
2019-04-07T20:56:00.379Z,16.27
2019-04-07T20:58:55.827Z,16.67
2019-04-07T21:01:58.717Z,17.10
2019-04-07T21:04:49.860Z,16.57
2019-04-07T21:07:28.942Z,17.23
2019-04-07T21:10:23.175Z,17.97
2019-04-07T21:12:58.706Z,16.97
2019-04-07T21:15:36.927Z,18.00
2019-04-07T21:18:24.290Z,19.23
2019-04-07T21:21:29.107Z,19.50
2019-04-07T21:24:11.208Z,18.30
2019-04-07T21:26:51.082Z,18.03
2019-04-07T21:29:48.782Z,20.33
2019-04-07T21:32:26.735Z,19.77
2019-04-07T21:35:35.395Z,20.03
2019-04-07T21:38:32.768Z,20.77
2019-04-07T21:41:21.025Z,21.67
2019-04-07T21:44:09.201Z,18.83
2019-04-07T21:47:10.161Z,21.10
2019-04-07T21:49:55.685Z,21.40
2019-04-07T21:52:45.044Z,20.67
2019-04-07T21:55:32.969Z,21.40
2019-04-07T21:58:25.053Z,22.17
2019-04-07T22:01:18.695Z,23.37
2019-04-07T22:03:57.223Z,22.00
2019-04-07T22:06:37.853Z,21.73
2019-04-07T22:09:24.686Z,22.67
2019-04-07T22:11:55.853Z,23.03
2019-04-07T22:14:26.321Z,22.40
2019-04-07T22:16:56.823Z,21.50
2019-04-07T22:19:26.222Z,24.33
2019-04-07T22:21:56.890Z,22.70
2019-04-07T22:24:32.158Z,22.77
2019-04-07T22:26:57.948Z,24.10
2019-04-07T22:29:27.642Z,23.80
2019-04-07T22:31:58.604Z,24.97
2019-04-07T22:34:31.455Z,24.60
2019-04-07T22:36:59.107Z,24.87
2019-04-07T22:39:30.757Z,24.43
2019-04-07T22:42:00.191Z,23.73
2019-04-07T22:44:29.865Z,23.33
2019-04-07T22:46:59.204Z,24.07
2019-04-07T22:49:31.920Z,23.57
2019-04-07T22:51:59.779Z,23.83
2019-04-07T22:54:30.923Z,24.37
2019-04-07T22:57:00.758Z,25.53
2019-04-07T22:59:30.571Z,23.83
2019-04-07T23:01:59.937Z,24.77
2019-04-07T23:04:30.070Z,24.23
2019-04-07T23:06:59.408Z,25.17
2019-04-07T23:09:29.912Z,24.40
2019-04-07T23:12:01.789Z,24.13
2019-04-07T23:14:30.665Z,24.20
2019-04-07T23:17:01.406Z,24.60
2019-04-07T23:19:32.222Z,23.13
2019-04-07T23:22:01.729Z,25.17
2019-04-07T23:24:31.209Z,24.30
2019-04-07T23:27:00.458Z,23.73
2019-04-07T23:29:30.408Z,23.60
2019-04-07T23:32:00.075Z,23.50
2019-04-07T23:34:29.390Z,24.33
2019-04-07T23:36:59.676Z,24.63
2019-04-07T23:39:29.275Z,24.80
2019-04-07T23:41:58.663Z,25.60
2019-04-07T23:44:28.306Z,25.67
2019-04-07T23:46:57.604Z,24.90
2019-04-07T23:49:27.899Z,24.93
2019-04-07T23:51:57.528Z,23.57
2019-04-07T23:54:26.947Z,24.70
2019-04-07T23:56:56.244Z,24.37
2019-04-07T23:59:25.815Z,25.23
